createdAt,value
2022-10-27T00:02:48.772Z,12.65
2022-10-27T00:05:51.713Z,12.61
2022-10-27T00:08:54.555Z,12.55
2022-10-27T00:11:57.485Z,12.47
2022-10-27T00:15:00.594Z,12.41
2022-10-27T00:18:08.944Z,12.26
2022-10-27T00:21:14.523Z,12.26
2022-10-27T00:24:18.808Z,12.27
2022-10-27T00:27:21.335Z,12.19
2022-10-27T00:30:24.183Z,12.21
2022-10-27T00:33:26.762Z,12.21
2022-10-27T00:36:29.859Z,12.23
2022-10-27T00:39:32.615Z,12.25
2022-10-27T00:42:35.469Z,12.30
2022-10-27T00:45:38.006Z,12.32
2022-10-27T00:48:41.747Z,12.30
2022-10-27T00:51:52.237Z,12.24
2022-10-27T00:54:58.803Z,12.25
2022-10-27T00:58:05.919Z,12.22
2022-10-27T01:01:08.875Z,12.20
2022-10-27T01:04:12.295Z,12.23
2022-10-27T01:07:19.056Z,12.20
2022-10-27T01:10:22.513Z,12.18
2022-10-27T01:13:25.524Z,12.21
2022-10-27T01:16:35.332Z,12.24
2022-10-27T01:20:06.314Z,12.25
2022-10-27T01:23:11.903Z,12.25
2022-10-27T01:26:38.192Z,12.29
2022-10-27T01:29:56.470Z,12.29
2022-10-27T01:33:30.312Z,12.26
2022-10-27T01:36:42.675Z,12.24
2022-10-27T01:40:30.235Z,12.23
2022-10-27T01:43:34.475Z,12.20
2022-10-27T01:46:37.657Z,12.17
2022-10-27T01:49:42.308Z,12.15
2022-10-27T01:52:50.369Z,12.09
2022-10-27T01:55:56.102Z,12.05
2022-10-27T01:59:11.298Z,12.06
2022-10-27T02:02:37.486Z,12.09
2022-10-27T02:05:57.837Z,12.15
2022-10-27T02:09:39.443Z,12.17
2022-10-27T02:12:43.840Z,12.13
2022-10-27T02:15:52.948Z,12.12
2022-10-27T02:19:08.994Z,12.09
2022-10-27T02:22:12.473Z,12.07
2022-10-27T02:25:16.490Z,12.05
2022-10-27T02:28:24.959Z,12.04
2022-10-27T02:31:38.582Z,11.91
2022-10-27T02:34:43.739Z,11.95
2022-10-27T02:37:47.005Z,11.95
2022-10-27T02:40:49.740Z,11.95
2022-10-27T02:43:52.740Z,11.98
2022-10-27T02:46:55.638Z,12.00
2022-10-27T02:49:59.444Z,11.94
2022-10-27T02:53:02.010Z,11.97
2022-10-27T02:56:05.156Z,12.03
2022-10-27T02:59:07.675Z,12.06
2022-10-27T03:02:11.429Z,12.09
2022-10-27T03:05:14.354Z,12.12
2022-10-27T03:08:17.500Z,12.16
2022-10-27T03:11:20.093Z,12.15
2022-10-27T03:14:22.941Z,12.14
2022-10-27T03:17:25.620Z,12.14
2022-10-27T03:20:28.501Z,12.17
2022-10-27T03:23:31.104Z,12.17
2022-10-27T03:26:33.995Z,12.16
2022-10-27T03:29:40.228Z,12.13
2022-10-27T03:32:48.323Z,12.07
2022-10-27T03:35:51.055Z,12.14
2022-10-27T03:38:54.699Z,12.18
2022-10-27T03:41:57.272Z,12.19
2022-10-27T03:45:00.265Z,12.15
2022-10-27T03:48:11.228Z,12.14
2022-10-27T03:51:14.138Z,12.16
2022-10-27T03:54:16.814Z,12.16
2022-10-27T03:57:19.583Z,12.16
2022-10-27T04:00:23.026Z,12.13
2022-10-27T04:03:25.879Z,12.06
2022-10-27T04:06:28.616Z,12.15
2022-10-27T04:09:32.049Z,12.13
2022-10-27T04:12:34.636Z,12.09
2022-10-27T04:15:37.482Z,12.06
2022-10-27T04:18:40.096Z,12.07
2022-10-27T04:21:42.902Z,12.05
2022-10-27T04:24:45.631Z,12.01
2022-10-27T04:27:48.802Z,11.98
2022-10-27T04:30:51.589Z,11.97
2022-10-27T04:33:54.443Z,11.91
2022-10-27T04:36:56.976Z,11.87
2022-10-27T04:40:00.333Z,11.77
2022-10-27T04:43:03.088Z,11.71
2022-10-27T04:46:05.978Z,11.70
2022-10-27T04:49:08.519Z,11.55
2022-10-27T04:55:14.980Z,11.42
2022-10-27T04:58:18.864Z,11.36
2022-10-27T05:01:22.569Z,11.17
2022-10-27T05:04:25.568Z,11.30
2022-10-27T05:07:28.171Z,11.28
2022-10-27T05:10:33.400Z,11.27
2022-10-27T05:13:35.926Z,11.24
2022-10-27T05:16:38.796Z,11.23
2022-10-27T05:19:41.363Z,11.23
2022-10-27T05:22:44.328Z,11.10
2022-10-27T05:25:54.082Z,11.04
2022-10-27T05:28:57.059Z,10.93
2022-10-27T05:31:59.666Z,10.95
2022-10-27T05:35:02.593Z,10.99
2022-10-27T05:38:05.204Z,10.97
2022-10-27T05:41:08.191Z,10.96
2022-10-27T05:44:11.058Z,10.90
2022-10-27T05:47:13.945Z,10.87
2022-10-27T05:50:16.537Z,10.86
2022-10-27T05:53:19.968Z,10.80
2022-10-27T05:56:22.583Z,10.87
2022-10-27T05:59:25.428Z,10.87
2022-10-27T06:02:28.193Z,10.97
2022-10-27T06:05:32.630Z,11.04
2022-10-27T06:08:35.470Z,11.16
2022-10-27T06:11:38.328Z,11.15
2022-10-27T06:14:40.916Z,11.23
2022-10-27T06:17:43.882Z,11.25
2022-10-27T06:20:46.515Z,11.38
2022-10-27T06:23:50.667Z,11.42
2022-10-27T06:26:56.173Z,11.49
2022-10-27T06:29:59.991Z,11.56
2022-10-27T06:33:02.581Z,11.69
2022-10-27T06:36:05.724Z,11.87
2022-10-27T06:39:08.352Z,11.98
2022-10-27T06:42:11.306Z,12.00
2022-10-27T06:45:18.461Z,12.18
2022-10-27T06:48:22.510Z,12.35
2022-10-27T06:51:25.102Z,12.44
2022-10-27T06:54:27.906Z,12.66
2022-10-27T06:57:31.060Z,12.89
2022-10-27T07:00:34.090Z,13.19
2022-10-27T07:03:38.029Z,13.43
2022-10-27T07:06:41.012Z,13.60
2022-10-27T07:09:43.816Z,13.77
2022-10-27T07:13:00.152Z,13.88
2022-10-27T07:16:02.753Z,14.02
2022-10-27T07:19:05.623Z,14.05
2022-10-27T07:22:08.590Z,14.20
2022-10-27T07:25:11.500Z,14.30
2022-10-27T07:28:14.113Z,14.38
2022-10-27T07:31:17.174Z,14.47
2022-10-27T07:34:19.762Z,14.30
2022-10-27T07:37:22.600Z,14.24
2022-10-27T07:40:28.777Z,14.23
2022-10-27T07:43:37.074Z,14.29
2022-10-27T07:46:39.628Z,14.23
2022-10-27T07:49:42.466Z,14.24
2022-10-27T07:52:47.172Z,14.36
2022-10-27T07:55:52.513Z,14.45
2022-10-27T07:58:55.231Z,14.58
2022-10-27T08:01:58.233Z,14.82
2022-10-27T08:05:01.911Z,14.88
2022-10-27T08:08:06.610Z,14.99
2022-10-27T08:11:09.487Z,15.17
2022-10-27T08:14:12.199Z,15.34
2022-10-27T08:17:15.510Z,15.47
2022-10-27T08:20:18.798Z,15.70
2022-10-27T08:23:24.583Z,15.76
2022-10-27T08:26:27.405Z,15.95
2022-10-27T08:29:30.322Z,16.23
2022-10-27T08:35:37.103Z,16.48
2022-10-27T08:38:39.744Z,16.70
2022-10-27T08:42:01.764Z,16.69
2022-10-27T08:45:34.573Z,16.73
2022-10-27T08:48:38.902Z,16.56
2022-10-27T08:51:43.769Z,16.60
2022-10-27T08:54:51.492Z,16.49
2022-10-27T08:58:10.495Z,16.79
2022-10-27T09:01:13.357Z,16.98
2022-10-27T09:04:28.090Z,17.03
2022-10-27T09:07:47.707Z,17.12
2022-10-27T09:11:04.581Z,17.26
2022-10-27T09:14:27.710Z,17.37
2022-10-27T09:17:40.175Z,17.42
2022-10-27T09:20:55.235Z,17.47
2022-10-27T09:24:05.411Z,17.52
2022-10-27T09:27:13.907Z,17.81
2022-10-27T09:30:17.169Z,17.93
2022-10-27T09:33:27.644Z,17.94
2022-10-27T09:36:30.248Z,17.87
2022-10-27T09:39:33.200Z,17.98
2022-10-27T09:42:35.802Z,17.97
2022-10-27T09:45:39.102Z,18.06
2022-10-27T09:48:42.470Z,18.22
2022-10-27T09:51:48.183Z,18.14
2022-10-27T09:54:55.463Z,18.35
2022-10-27T09:58:02.464Z,18.39
2022-10-27T10:01:07.085Z,18.47
2022-10-27T10:04:42.451Z,18.63
2022-10-27T10:07:46.973Z,18.69
2022-10-27T10:11:01.544Z,18.68
2022-10-27T10:14:04.255Z,18.56
2022-10-27T10:17:21.314Z,18.81
2022-10-27T10:20:34.708Z,19.00
2022-10-27T10:23:49.767Z,18.77
2022-10-27T10:26:55.810Z,19.05
2022-10-27T10:30:03.969Z,18.97
2022-10-27T10:33:07.565Z,19.15
2022-10-27T10:36:25.445Z,19.09
2022-10-27T10:39:32.159Z,19.12
2022-10-27T10:42:35.023Z,19.13
2022-10-27T10:45:39.418Z,19.09
2022-10-27T10:48:47.356Z,19.20
2022-10-27T10:51:52.805Z,19.44
2022-10-27T10:55:19.159Z,19.48
2022-10-27T10:58:24.064Z,19.43
2022-10-27T11:01:58.507Z,19.44
2022-10-27T11:08:42.716Z,19.41
2022-10-27T11:11:46.799Z,19.50
2022-10-27T11:14:54.680Z,19.46
2022-10-27T11:18:10.392Z,19.37
2022-10-27T11:21:24.904Z,19.85
2022-10-27T11:24:50.404Z,19.59
2022-10-27T11:28:18.245Z,19.65
2022-10-27T11:31:49.207Z,19.74
2022-10-27T11:34:54.807Z,19.98
2022-10-27T11:38:23.529Z,20.21
2022-10-27T11:41:41.947Z,19.92
2022-10-27T11:45:01.118Z,19.88
2022-10-27T11:48:35.754Z,19.83
2022-10-27T11:51:47.725Z,19.85
2022-10-27T11:54:54.458Z,19.86
2022-10-27T11:58:30.375Z,19.94
2022-10-27T12:01:52.645Z,19.84
2022-10-27T12:05:11.122Z,19.90
2022-10-27T12:08:19.248Z,19.80
2022-10-27T12:11:25.169Z,20.11
2022-10-27T12:14:32.475Z,19.93
2022-10-27T12:17:43.800Z,19.92
2022-10-27T12:20:56.920Z,19.94
2022-10-27T12:24:19.753Z,20.07
2022-10-27T12:27:26.773Z,20.07
2022-10-27T12:30:31.825Z,20.11
2022-10-27T12:33:44.217Z,20.09
2022-10-27T12:36:56.304Z,20.19
2022-10-27T12:40:11.769Z,20.08
2022-10-27T12:43:37.500Z,20.17
2022-10-27T12:46:47.928Z,20.12
2022-10-27T12:50:06.529Z,20.15
2022-10-27T12:53:31.613Z,20.10
2022-10-27T12:56:56.700Z,20.08
2022-10-27T13:00:05.908Z,19.98
2022-10-27T13:03:29.278Z,20.11
2022-10-27T13:06:41.239Z,20.17
2022-10-27T13:10:08.698Z,20.13
2022-10-27T13:13:36.124Z,20.15
2022-10-27T13:17:02.116Z,19.93
2022-10-27T13:20:11.066Z,20.03
2022-10-27T13:23:22.860Z,19.89
2022-10-27T13:26:34.563Z,19.96
2022-10-27T13:29:46.478Z,20.13
2022-10-27T13:32:49.051Z,20.00
2022-10-27T13:36:18.844Z,20.06
2022-10-27T13:39:40.716Z,20.02
2022-10-27T13:42:45.006Z,19.94
2022-10-27T13:45:48.773Z,19.81
2022-10-27T13:48:51.934Z,19.90
2022-10-27T13:52:10.580Z,19.77
2022-10-27T13:55:28.454Z,19.59
2022-10-27T13:58:44.846Z,19.63
2022-10-27T14:01:53.094Z,19.64
2022-10-27T14:05:02.364Z,19.59
2022-10-27T14:08:15.500Z,19.62
2022-10-27T14:11:31.725Z,19.66
2022-10-27T14:14:38.138Z,19.48
2022-10-27T14:17:44.448Z,19.52
2022-10-27T14:20:47.425Z,19.38
2022-10-27T14:23:51.146Z,19.43
2022-10-27T14:26:59.183Z,19.36
2022-10-27T14:30:13.217Z,19.42
2022-10-27T14:33:22.971Z,19.36
2022-10-27T14:36:38.273Z,19.30
2022-10-27T14:39:41.307Z,19.00
2022-10-27T14:42:45.900Z,18.89
2022-10-27T14:46:00.350Z,18.97
2022-10-27T14:49:08.119Z,18.75
2022-10-27T14:52:20.240Z,18.63
2022-10-27T14:55:34.652Z,18.57
2022-10-27T14:58:37.293Z,18.44
2022-10-27T15:01:41.413Z,18.23
2022-10-27T15:04:47.168Z,18.07
2022-10-27T15:08:04.852Z,17.99
2022-10-27T15:11:07.824Z,17.76
2022-10-27T15:14:10.968Z,17.60
2022-10-27T15:17:15.731Z,17.50
2022-10-27T15:20:19.333Z,17.32
2022-10-27T15:23:22.375Z,17.17
2022-10-27T15:26:27.143Z,17.01
2022-10-27T15:29:29.954Z,16.91
2022-10-27T15:32:39.122Z,16.76
2022-10-27T15:35:42.704Z,16.61
2022-10-27T15:38:48.100Z,16.48
2022-10-27T15:41:52.023Z,16.34
2022-10-27T15:45:26.942Z,16.23
2022-10-27T15:48:36.774Z,16.13
2022-10-27T15:52:00.417Z,16.02
2022-10-27T15:55:07.935Z,15.90
2022-10-27T15:58:33.829Z,15.79
2022-10-27T16:01:36.930Z,15.67
2022-10-27T16:04:40.305Z,15.58
2022-10-27T16:07:42.835Z,15.42
2022-10-27T16:10:50.378Z,15.46
2022-10-27T16:13:57.903Z,15.44
2022-10-27T16:17:02.760Z,15.36
2022-10-27T16:20:14.280Z,15.28
2022-10-27T16:23:17.308Z,15.20
2022-10-27T16:26:23.977Z,15.16
2022-10-27T16:29:29.152Z,15.13
2022-10-27T16:32:34.870Z,15.05
2022-10-27T16:35:37.783Z,15.00
2022-10-27T16:38:41.825Z,15.00
2022-10-27T16:41:46.287Z,14.88
2022-10-27T16:44:49.632Z,14.77
2022-10-27T16:47:53.234Z,14.69
2022-10-27T16:50:56.502Z,14.66
2022-10-27T16:54:00.742Z,14.60
2022-10-27T16:57:04.808Z,14.56
2022-10-27T17:00:11.285Z,14.49
2022-10-27T17:03:16.420Z,14.39
2022-10-27T17:06:21.923Z,14.35
2022-10-27T17:09:24.803Z,14.27
2022-10-27T17:12:27.902Z,14.20
2022-10-27T17:15:30.437Z,14.23
2022-10-27T17:18:34.447Z,14.23
2022-10-27T17:21:37.195Z,14.18
2022-10-27T17:24:40.324Z,14.09
2022-10-27T17:27:43.179Z,13.96
2022-10-27T17:30:47.817Z,13.96
2022-10-27T17:33:53.101Z,13.97
2022-10-27T17:36:57.670Z,13.91
2022-10-27T17:40:00.521Z,13.83
2022-10-27T17:43:03.763Z,13.78
2022-10-27T17:46:12.924Z,13.62
2022-10-27T17:49:16.131Z,13.57
2022-10-27T17:52:18.971Z,13.60
2022-10-27T17:55:22.334Z,13.56
2022-10-27T17:58:25.190Z,13.52
2022-10-27T18:01:30.793Z,13.39
2022-10-27T18:04:35.751Z,13.36
2022-10-27T18:07:39.048Z,13.31
2022-10-27T18:10:43.322Z,13.30
2022-10-27T18:13:48.363Z,13.25
2022-10-27T18:16:51.955Z,13.21
2022-10-27T18:19:54.775Z,13.13
2022-10-27T18:22:57.819Z,13.03
2022-10-27T18:26:07.802Z,13.03
2022-10-27T18:29:12.410Z,12.87
2022-10-27T18:32:20.145Z,12.87
2022-10-27T18:35:23.323Z,12.79
2022-10-27T18:38:26.194Z,12.74
2022-10-27T18:41:32.457Z,12.70
2022-10-27T18:44:35.343Z,12.62
2022-10-27T18:47:38.189Z,12.56
2022-10-27T18:50:41.011Z,12.50
2022-10-27T18:53:44.195Z,12.50
2022-10-27T18:56:46.754Z,12.45
2022-10-27T18:59:52.771Z,12.49
2022-10-27T19:02:55.575Z,12.44
2022-10-27T19:06:00.389Z,12.37
2022-10-27T19:09:03.953Z,12.38
2022-10-27T19:12:07.193Z,12.30
2022-10-27T19:15:10.171Z,12.28
2022-10-27T19:18:14.040Z,12.18
2022-10-27T19:21:19.352Z,12.23
2022-10-27T19:24:22.546Z,12.09
2022-10-27T19:27:25.390Z,12.05
2022-10-27T19:30:28.716Z,11.97
2022-10-27T19:33:32.215Z,11.99
2022-10-27T19:36:41.628Z,11.98
2022-10-27T19:39:44.317Z,11.76
2022-10-27T19:42:47.602Z,11.79
2022-10-27T19:45:51.141Z,11.68
2022-10-27T19:49:03.286Z,11.78
2022-10-27T19:52:06.589Z,11.78
2022-10-27T19:55:10.407Z,11.80
2022-10-27T19:58:13.034Z,11.82
2022-10-27T20:01:33.812Z,11.58
2022-10-27T20:04:38.527Z,11.57
2022-10-27T20:07:41.547Z,11.68
2022-10-27T20:10:44.863Z,11.72
2022-10-27T20:13:48.764Z,11.58
2022-10-27T20:16:51.928Z,11.58
2022-10-27T20:19:54.929Z,11.50
2022-10-27T20:22:58.511Z,11.36
2022-10-27T20:26:24.200Z,11.35
2022-10-27T20:29:27.347Z,11.46
2022-10-27T20:32:33.948Z,11.46
2022-10-27T20:35:36.819Z,11.23
2022-10-27T20:38:39.805Z,11.43
2022-10-27T20:41:42.809Z,11.66
2022-10-27T20:44:45.689Z,11.59
2022-10-27T20:47:49.027Z,11.67
2022-10-27T20:51:11.734Z,11.78
2022-10-27T20:54:16.060Z,11.82
2022-10-27T20:57:19.099Z,11.75
2022-10-27T21:00:22.035Z,11.65
2022-10-27T21:03:26.829Z,11.56
2022-10-27T21:06:31.807Z,11.73
2022-10-27T21:09:34.978Z,11.71
2022-10-27T21:12:38.192Z,11.83
2022-10-27T21:15:41.023Z,11.82
2022-10-27T21:18:44.048Z,11.75
2022-10-27T21:21:47.074Z,11.68
2022-10-27T21:24:49.937Z,11.63
2022-10-27T21:27:53.879Z,11.80
2022-10-27T21:30:56.683Z,11.65
2022-10-27T21:34:04.561Z,11.76
2022-10-27T21:37:07.409Z,11.65
2022-10-27T21:40:10.578Z,11.66
2022-10-27T21:43:13.429Z,11.71
2022-10-27T21:46:18.445Z,11.77
2022-10-27T21:49:21.635Z,11.69
2022-10-27T21:52:24.158Z,11.76
2022-10-27T21:55:27.197Z,11.70
2022-10-27T21:58:31.586Z,11.80
2022-10-27T22:01:34.547Z,11.72
2022-10-27T22:04:37.843Z,11.76
2022-10-27T22:07:40.369Z,11.80
2022-10-27T22:10:43.595Z,11.77
2022-10-27T22:13:46.589Z,11.83
2022-10-27T22:16:49.458Z,11.75
2022-10-27T22:19:52.886Z,11.69
2022-10-27T22:22:55.946Z,11.71
2022-10-27T22:26:06.528Z,11.81
2022-10-27T22:29:10.325Z,11.90
2022-10-27T22:32:12.870Z,11.80
2022-10-27T22:35:15.886Z,11.82
2022-10-27T22:38:18.735Z,11.58
2022-10-27T22:41:21.942Z,11.63
2022-10-27T22:44:24.496Z,11.64
2022-10-27T22:47:27.385Z,11.56
2022-10-27T22:50:30.024Z,11.63
2022-10-27T22:53:35.534Z,11.63
2022-10-27T22:56:38.092Z,11.59
2022-10-27T22:59:41.054Z,11.68
2022-10-27T23:02:43.683Z,11.62
2022-10-27T23:05:46.587Z,11.73
2022-10-27T23:08:54.562Z,11.53
2022-10-27T23:11:57.497Z,11.62
2022-10-27T23:15:00.035Z,11.61
2022-10-27T23:18:02.831Z,11.46
2022-10-27T23:21:07.335Z,11.54
2022-10-27T23:24:12.441Z,11.70
2022-10-27T23:27:15.044Z,11.55
2022-10-27T23:30:17.891Z,11.55
2022-10-27T23:33:20.571Z,11.56
2022-10-27T23:36:26.793Z,11.61
2022-10-27T23:39:29.382Z,11.49
2022-10-27T23:42:32.231Z,11.53
2022-10-27T23:45:34.768Z,11.56
2022-10-27T23:48:38.282Z,11.57
2022-10-27T23:51:40.870Z,11.40
2022-10-27T23:54:45.349Z,11.40
2022-10-27T23:57:47.961Z,11.33
